• Join FlightAware (Why Join?)
  • Login
  • US Flag 
03:36AM EDT


 

Airport Tracker/Info


-or-


 

Live Flight TrackerFlight Track Log ✈ EJM918 ✈ 21-Jun-2013 ✈ KHPN - KIAD

Flight Track Log - Related Links

Times and Time Zones

All times are in EDT time to prevent confusion due to time zone crossing. See the EJM918 flight status page for this flight to view local times or setup timezone preferences in your user account.

Time Position Orientation Groundspeed Altitude Reporting Facility
EDT Latitude Longitude Course Direction KTS MPH feet Rate Location/Type
07:31AM 41.1045 -73.8068 275° West 254 292 4,300  Level FlightAware ADS-B
07:32AM 41.0880 -73.8610 248° West 275 316 6,800 3,960 Climbing FlightAware
07:32AM 41.0662 -73.8834 218° Southwest 255 293 8,200 4,020 Climbing FlightAware ADS-B
07:32AM 41.0584 -73.8906 215° Southwest 285 328 8,700 3,900 Climbing FlightAware ADS-B
07:33AM 41.0381 -73.9085 214° Southwest 288 331 9,900 2,280 Climbing FlightAware ADS-B
07:33AM 40.9985 -73.9431 213° Southwest 330 380 10,700 1,200 Climbing FlightAware ADS-B
07:34AM 40.9550 -73.9819 214° Southwest 373 429 11,200 1,440 Climbing FlightAware ADS-B
07:34AM 40.9114 -74.0212 214° Southwest 379 436 12,200 1,860 Climbing FlightAware ADS-B
07:34AM 40.9013 -74.0307 215° Southwest 379 436 12,400 1,980 Climbing FlightAware ADS-B
07:35AM 40.8871 -74.0476 222° Southwest 376 433 12,800 1,980 Climbing FlightAware ADS-B
07:35AM 40.8826 -74.0545 229° Southwest 376 433 12,900 1,980 Climbing FlightAware ADS-B
07:35AM 40.8774 -74.0632 232° Southwest 376 433 13,100 2,040 Climbing FlightAware ADS-B
07:35AM 40.8464 -74.1200 234° Southwest 383 441 14,100 1,860 Climbing FlightAware ADS-B
07:35AM 40.8387 -74.1349 236° Southwest 384 442 14,300 1,500 Climbing FlightAware ADS-B
07:36AM 40.8218 -74.1675 236° Southwest 387 445 14,700 1,080 Climbing FlightAware ADS-B
07:36AM 40.8158 -74.1791 236° Southwest 388 447 14,700  Level FlightAware ADS-B
07:36AM 40.7847 -74.2384 235° Southwest 388 447 14,700  Level FlightAware ADS-B
07:36AM 40.7835 -74.2407 235° Southwest 388 447 14,700  Level FlightAware ADS-B
07:36AM 40.7761 -74.2563 238° Southwest 387 445 14,700  Level FlightAware ADS-B
07:37AM 40.7693 -74.2751 244° Southwest 386 444 14,700  Level FlightAware ADS-B
07:37AM 40.7666 -74.2849 250° West 386 444 14,700 600 Level FlightAware ADS-B
07:37AM 40.7639 -74.2985 255° West 385 443 14,800 960 Climbing FlightAware ADS-B
07:37AM 40.7622 -74.3115 260° West 385 443 14,900 1,320 Climbing FlightAware ADS-B
07:37AM 40.7616 -74.3190 264° West 385 443 15,000 1,080 Climbing FlightAware ADS-B
07:37AM 40.7612 -74.3377 268° West 384 442 15,100 1,320 Climbing FlightAware ADS-B
07:37AM 40.7630 -74.3601 276° West 384 442 15,400 840 Climbing FlightAware ADS-B
07:38AM 40.7794 -74.4332 287° West 382 440 15,700 240 Climbing FlightAware ADS-B
07:38AM 40.7960 -74.5010 288° West 382 440 15,700  Level FlightAware ADS-B
07:39AM 40.8121 -74.5676 288° West 380 437 15,700  Level FlightAware ADS-B
07:39AM 40.8152 -74.5807 287° West 382 440 15,700  Level FlightAware ADS-B
07:39AM 40.8191 -74.6044 282° West 382 440 15,700  Level FlightAware ADS-B
07:39AM 40.8196 -74.6113 275° West 383 441 15,700  Level FlightAware ADS-B
07:39AM 40.8201 -74.6244 273° West 384 442 15,700  Level FlightAware ADS-B
07:39AM 40.8194 -74.6465 268° West 385 443 15,700  Level FlightAware ADS-B
07:40AM 40.8168 -74.6729 263° West 386 444 15,700  Level FlightAware ADS-B
07:40AM 40.8144 -74.6852 256° West 386 444 15,700  Level FlightAware ADS-B
07:40AM 40.8109 -74.6990 251° West 388 447 15,700  Level FlightAware ADS-B
07:40AM 40.7892 -74.7651 247° West 388 447 15,700  Level FlightAware ADS-B
07:41AM 40.7672 -74.8309 246° West 389 448 15,700  Level FlightAware ADS-B
07:41AM 40.7481 -74.8871 246° West 389 448 15,700  Level FlightAware ADS-B
07:42AM 40.7257 -74.9518 245° Southwest 390 449 15,700 1,320 Level FlightAware ADS-B
07:42AM 40.7029 -75.0182 246° West 394 453 17,100 2,820 Climbing FlightAware ADS-B
07:43AM 40.6786 -75.0842 244° Southwest 408 470 18,600 2,760 Climbing FlightAware ADS-B
07:43AM 40.6496 -75.1494 240° Southwest 416 479 19,900 1,380 Climbing FlightAware ADS-B
07:44AM 40.6196 -75.2153 239° Southwest 418 481 20,000 60 Climbing FlightAware ADS-B
07:44AM 40.5898 -75.2809 239° Southwest 418 481 20,000  Level FlightAware ADS-B
07:45AM 40.5597 -75.3466 239° Southwest 418 481 20,000  Level FlightAware ADS-B
07:45AM 40.5299 -75.4121 239° Southwest 418 481 20,000  Level FlightAware ADS-B
07:46AM 40.4995 -75.4777 239° Southwest 419 482 20,000  Level FlightAware ADS-B
07:46AM 40.4691 -75.5439 239° Southwest 420 483 20,000  Level FlightAware ADS-B
07:47AM 40.4385 -75.6101 239° Southwest 421 484 20,000  Level FlightAware ADS-B
07:47AM 40.4079 -75.6757 239° Southwest 420 483 20,000  Level FlightAware ADS-B
07:48AM 40.3774 -75.7415 239° Southwest 420 483 20,000  Level FlightAware ADS-B
07:48AM 40.3460 -75.8091 239° Southwest 421 484 20,000  Level FlightAware ADS-B
07:49AM 40.3149 -75.8757 239° Southwest 420 483 20,000  Level FlightAware ADS-B
07:49AM 40.2829 -75.9441 238° Southwest 419 482 20,000  Level FlightAware ADS-B
07:50AM 40.2524 -76.0095 239° Southwest 418 481 20,000 -420 Level FlightAware ADS-B
07:50AM 40.2212 -76.0760 238° Southwest 418 481 19,600 -900 Descending FlightAware ADS-B
07:51AM 40.1898 -76.1429 238° Southwest 416 479 19,100 -1,020 Descending FlightAware ADS-B
07:51AM 40.1589 -76.2090 239° Southwest 414 476 18,600 -1,080 Descending FlightAware ADS-B
07:52AM 40.1293 -76.2717 238° Southwest 410 472 18,000 -1,260 Descending FlightAware ADS-B
07:52AM 40.0990 -76.3366 239° Southwest 406 467 17,300 -1,380 Descending FlightAware ADS-B
07:53AM 40.0691 -76.4017 239° Southwest 402 463 16,600 -1,380 Descending FlightAware ADS-B
07:53AM 40.0392 -76.4666 239° Southwest 400 460 15,900 -1,320 Descending FlightAware ADS-B
07:54AM 40.0060 -76.5380 239° Southwest 395 455 15,200 -1,080 Descending FlightAware ADS-B
07:55AM 39.9742 -76.6070 239° Southwest 394 453 14,700 -480 Descending FlightAware ADS-B
07:55AM 39.9433 -76.6736 239° Southwest 392 451 14,700  Level FlightAware ADS-B
07:56AM 39.9143 -76.7355 239° Southwest 391 450 14,700  Level FlightAware ADS-B
07:56AM 39.8725 -76.8252 239° Southwest 390 449 14,700 -120 Level FlightAware ADS-B
07:57AM 39.8440 -76.8861 239° Southwest 389 448 14,600 -720 Descending FlightAware ADS-B
07:57AM 39.8145 -76.9491 239° Southwest 386 444 14,000 -1,260 Descending FlightAware ADS-B
07:58AM 39.7856 -77.0106 239° Southwest 384 442 13,300 -1,200 Descending FlightAware ADS-B
07:59AM 39.7320 -77.1250 239° Southwest 343 395 12,000 -1,200 Descending FlightAware
08:00AM 39.7000 -77.1930 239° Southwest 309 356 11,200 -1,380 Descending FlightAware
08:01AM 39.6340 -77.2630 219° Southwest 296 341 9,800 -1,680 Descending FlightAware
08:01AM 39.6180 -77.2790 218° Southwest 300 345 9,200 -1,860 Descending FlightAware
08:01AM 39.5920 -77.3040 217° Southwest 290 334 8,600 -1,680 Descending FlightAware
08:02AM 39.5590 -77.3370 218° Southwest 286 329 7,700 -1,620 Descending FlightAware
08:02AM 39.5280 -77.3690 219° Southwest 276 318 7,000 -1,500 Descending FlightAware
08:03AM 39.4950 -77.3920 208° Southwest 270 311 6,200 -900 Descending FlightAware
08:03AM 39.4600 -77.3990 189° South 269 310 6,000 -780 Descending FlightAware
08:04AM 39.4250 -77.4050 188° South 270 311 5,300 -1,140 Descending FlightAware
08:05AM 39.3080 -77.4180 185° South 260 299 3,700 -900 Descending FlightAware
08:06AM 39.2870 -77.4210 186° South 260 299 3,700  Level FlightAware
08:06AM 39.2540 -77.4250 185° South 246 283 3,700  Level FlightAware
08:06AM 39.2400 -77.4270 186° South 239 275 3,700  Level FlightAware
08:07AM 39.2100 -77.4310 186° South 238 274 3,700 -360 Level FlightAware
08:07AM 39.1800 -77.4330 183° South 237 273 3,400 -540 Descending FlightAware
08:08AM 39.1480 -77.4330 180° South 222 255 3,200 -420 Descending FlightAware
08:08AM 39.1230 -77.4340 182° South 196 226 3,000 -540 Descending FlightAware
08:09AM 39.1010 -77.4340 180° South 183 211 2,800 -840 Descending FlightAware
08:09AM 39.0740 -77.4350 182° South 168 193 2,300 -840 Descending FlightAware
08:09AM 39.0670 -77.4350 180° South 165 190 2,200 -840 Descending FlightAware
08:10AM 39.0470 -77.4350 180° South 158 182 1,800 -960 Descending FlightAware
08:10AM 39.0320 -77.4350 180° South 144 166 1,500 -960 Descending FlightAware